Time;durP1;ratioP1;P1;durP2;ratioP2;P2;SDS_P1;SDS_P2;PMS_P1;PMS_P2;Temp;Humidity;BMP_temperature;BMP_pressure;BME280_temperature;BME280_humidity;BME280_pressure;Samples;Min_cycle;Max_cycle;Signal;HPM_P1;HPM_P2
2024/03/01 00:01:23;;;;;;;42.70;27.73;;;;;;;11.98;56.48;94883.66;5006573;28;20481;-78
2024/03/01 00:03:48;;;;;;;42.70;26.90;;;;;;;12.00;56.13;94884.00;5005026;28;20168;-78
2024/03/01 00:06:14;;;;;;;42.85;28.63;;;;;;;11.88;56.65;94875.31;5006624;28;20491;-79
2024/03/01 00:08:39;;;;;;;44.58;27.70;;;;;;;11.87;56.79;94868.28;5005346;28;20091;-79
2024/03/01 00:11:05;;;;;;;38.60;26.95;;;;;;;11.88;56.82;94871.81;5006205;28;20373;-78
2024/03/01 00:13:30;;;;;;;43.75;26.48;;;;;;;11.86;56.66;94861.22;5005174;28;20080;-80
2024/03/01 00:15:56;;;;;;;38.22;24.33;;;;;;;11.87;56.78;94853.72;5004746;28;20468;-81
2024/03/01 00:18:21;;;;;;;39.22;24.75;;;;;;;11.83;56.95;94861.34;5004553;28;20022;-80
2024/03/01 00:20:47;;;;;;;34.78;23.20;;;;;;;11.85;57.04;94867.19;5004085;28;20508;-80
2024/03/01 00:23:12;;;;;;;34.17;23.67;;;;;;;11.82;57.13;94852.31;5005998;28;20018;-78
2024/03/01 00:25:38;;;;;;;34.78;22.02;;;;;;;11.85;57.04;94842.38;5004654;28;20477;-78
2024/03/01 00:28:03;;;;;;;36.65;22.50;;;;;;;11.87;57.05;94837.19;5005886;28;20018;-78
2024/03/01 00:30:28;;;;;;;34.10;21.50;;;;;;;11.85;57.06;94834.13;5006102;28;20034;-78
2024/03/01 00:32:54;;;;;;;36.08;22.02;;;;;;;11.87;57.07;94824.22;5024065;28;20033;-77
2024/03/01 00:35:19;;;;;;;35.28;21.92;;;;;;;11.87;57.45;94815.94;5008959;28;20412;-79
2024/03/01 00:37:45;;;;;;;32.50;20.63;;;;;;;11.84;57.03;94797.56;5008435;28;20040;-80
2024/03/01 00:40:10;;;;;;;38.03;22.05;;;;;;;11.78;57.48;94795.78;5009409;28;20476;-79
2024/03/01 00:42:36;;;;;;;39.55;21.55;;;;;;;11.77;57.68;94800.53;5007719;28;20041;-80
2024/03/01 00:45:01;;;;;;;37.20;22.30;;;;;;;11.71;57.72;94796.81;5009416;28;20022;-78
2024/03/01 00:47:26;;;;;;;35.40;21.80;;;;;;;11.70;57.94;94795.28;5008100;28;20353;-78
2024/03/01 00:49:53;;;;;;;35.72;21.58;;;;;;;11.69;57.92;94802.00;5009000;28;20040;-80
2024/03/01 00:52:18;;;;;;;41.67;21.17;;;;;;;11.65;58.17;94795.84;5023697;28;20455;-80
2024/03/01 00:54:43;;;;;;;34.17;21.20;;;;;;;11.63;58.49;94801.78;5007049;28;20496;-80
2024/03/01 00:57:09;;;;;;;32.25;20.10;;;;;;;11.73;58.43;94796.38;5009120;28;20202;-78
2024/03/01 00:59:34;;;;;;;33.30;19.45;;;;;;;11.67;58.75;94791.44;5008068;28;20034;-79
2024/03/01 01:01:59;;;;;;;30.40;19.08;;;;;;;11.46;59.11;94769.38;5009374;28;20040;-79
2024/03/01 01:04:25;;;;;;;31.23;17.88;;;;;;;11.56;59.25;94782.78;5007525;28;20105;-80
2024/03/01 01:06:51;;;;;;;30.25;18.30;;;;;;;11.50;59.30;94770.81;5008646;28;20034;-80
2024/03/01 01:09:16;;;;;;;29.92;18.77;;;;;;;11.47;59.60;94768.16;5008078;28;20109;-79
2024/03/01 01:11:41;;;;;;;33.63;19.88;;;;;;;11.40;59.76;94756.19;5008111;28;20077;-79
2024/03/01 01:14:07;;;;;;;29.90;18.17;;;;;;;11.41;59.66;94756.94;5008263;28;20033;-79
2024/03/01 01:16:33;;;;;;;34.20;18.67;;;;;;;11.44;59.55;94767.09;5007725;28;20033;-79
2024/03/01 01:18:58;;;;;;;28.17;18.45;;;;;;;11.38;59.55;94761.38;5008887;28;20026;-79
2024/03/01 01:21:23;;;;;;;33.85;19.15;;;;;;;11.37;59.70;94765.34;5007510;28;20026;-78
2024/03/01 01:23:49;;;;;;;34.33;19.02;;;;;;;11.33;59.78;94764.69;5008632;28;20544;-80
2024/03/01 01:26:15;;;;;;;30.23;18.65;;;;;;;11.39;59.40;94762.91;5007770;28;20022;-79
2024/03/01 01:28:40;;;;;;;33.90;19.48;;;;;;;11.35;59.44;94753.22;5008487;28;20432;-79
2024/03/01 01:31:08;;;;;;;28.73;17.30;;;;;;;11.31;59.74;94744.34;5008307;28;20072;-78
2024/03/01 01:33:33;;;;;;;30.98;19.38;;;;;;;11.31;59.73;94752.59;5022715;28;20231;-79
2024/03/01 01:35:58;;;;;;;30.20;18.90;;;;;;;11.31;59.56;94741.59;5008589;28;20339;-80
2024/03/01 01:38:24;;;;;;;29.70;18.63;;;;;;;11.28;59.86;94739.72;5007457;28;20018;-79
2024/03/01 01:40:51;;;;;;;34.80;18.75;;;;;;;11.19;59.98;94736.91;5008294;28;20262;-78
2024/03/01 01:43:16;;;;;;;30.65;19.20;;;;;;;11.17;59.86;94729.09;5006419;28;20018;-78
2024/03/01 01:45:41;;;;;;;33.05;19.98;;;;;;;11.24;59.65;94731.63;5007866;28;20049;-78
2024/03/01 01:48:07;;;;;;;34.38;20.45;;;;;;;11.19;59.95;94734.16;5007317;28;20024;-78
2024/03/01 01:50:33;;;;;;;30.23;18.50;;;;;;;11.23;59.86;94732.03;5007298;28;20388;-78
2024/03/01 01:52:59;;;;;;;31.15;18.13;;;;;;;11.23;59.89;94727.31;5007678;28;20049;-79
2024/03/01 01:55:25;;;;;;;30.73;19.17;;;;;;;11.24;59.73;94719.81;5006135;28;20025;-78
2024/03/01 01:57:50;;;;;;;31.70;17.45;;;;;;;11.23;60.08;94729.28;5006856;28;20084;-79
2024/03/01 02:00:16;;;;;;;32.00;18.73;;;;;;;11.17;60.00;94721.59;5005099;28;20473;-78
2024/03/01 02:02:43;;;;;;;27.88;18.02;;;;;;;11.16;60.22;94711.81;5007946;28;20022;-80
2024/03/01 02:05:08;;;;;;;30.27;18.67;;;;;;;11.22;59.95;94703.00;5006785;28;20058;-79
2024/03/01 02:07:36;;;;;;;28.48;18.20;;;;;;;11.21;59.76;94699.47;5007618;28;20064;-79
2024/03/01 02:10:09;;;;;;;31.45;19.42;;;;;;;11.22;59.82;94694.75;5007066;28;20072;-79
2024/03/01 02:12:34;;;;;;;31.95;19.67;;;;;;;11.25;59.80;94710.38;5006555;28;20161;-78
2024/03/01 02:15:00;;;;;;;31.17;18.25;;;;;;;11.23;59.83;94702.53;5007603;28;20120;-78
2024/03/01 02:17:26;;;;;;;31.05;18.05;;;;;;;11.16;59.81;94695.31;5006297;28;20018;-79
2024/03/01 02:19:51;;;;;;;29.90;18.52;;;;;;;11.21;59.70;94685.72;5007489;28;20022;-80
2024/03/01 02:22:18;;;;;;;29.15;18.00;;;;;;;11.19;59.80;94690.91;5006350;28;20259;-77
2024/03/01 02:24:44;;;;;;;30.27;18.40;;;;;;;11.22;59.66;94708.50;5007396;28;20040;-79
2024/03/01 02:27:09;;;;;;;32.35;19.10;;;;;;;11.18;59.79;94705.84;5006783;28;20121;-77
2024/03/01 02:29:35;;;;;;;33.03;19.50;;;;;;;11.09;59.98;94695.56;5006583;28;20129;-80
2024/03/01 02:32:00;;;;;;;29.13;18.65;;;;;;;11.11;59.97;94689.59;5006946;28;20030;-78
2024/03/01 02:34:26;;;;;;;28.95;18.35;;;;;;;11.12;59.82;94686.41;5006255;28;20052;-78
2024/03/01 02:36:52;;;;;;;34.30;19.52;;;;;;;11.13;59.67;94693.47;5007166;28;20033;-78
2024/03/01 02:39:17;;;;;;;30.58;19.35;;;;;;;11.06;59.85;94688.19;5006034;28;20026;-78
2024/03/01 02:41:47;;;;;;;28.70;18.77;;;;;;;11.03;59.73;94694.59;5006991;28;20056;-79
2024/03/01 02:44:13;;;;;;;28.77;18.88;;;;;;;11.03;59.77;94691.84;5006129;28;20540;-78
2024/03/01 02:46:39;;;;;;;29.08;18.88;;;;;;;11.01;59.90;94698.97;5021828;28;20036;-78
2024/03/01 02:49:04;;;;;;;32.63;19.80;;;;;;;10.94;59.85;94694.50;5006804;28;20079;-79
2024/03/01 02:51:30;;;;;;;34.45;19.55;;;;;;;10.84;60.09;94688.16;5006416;28;20495;-78
2024/03/01 02:53:56;;;;;;;28.92;18.90;;;;;;;10.76;60.25;94686.09;5006309;28;20030;-79
2024/03/01 02:56:21;;;;;;;29.60;18.38;;;;;;;10.78;60.07;94694.66;5005731;28;20033;-79
2024/03/01 02:58:47;;;;;;;28.42;17.95;;;;;;;10.75;60.19;94692.81;5006778;28;20396;-78
2024/03/01 03:01:13;;;;;;;28.83;18.98;;;;;;;10.68;60.25;94671.81;5004517;28;20040;-78
2024/03/01 03:03:38;;;;;;;30.58;19.25;;;;;;;10.60;60.69;94679.50;5006125;28;20404;-79
2024/03/01 03:06:03;;;;;;;28.58;17.65;;;;;;;10.56;60.50;94680.88;5006299;28;20034;-79
2024/03/01 03:08:29;;;;;;;31.02;18.27;;;;;;;10.48;60.92;94679.53;5006812;28;20026;-79
2024/03/01 03:10:54;;;;;;;27.27;17.83;;;;;;;10.44;60.79;94676.94;5006257;28;20049;-79
2024/03/01 03:13:20;;;;;;;31.25;18.85;;;;;;;10.41;60.75;94663.28;5005706;28;20022;-79
2024/03/01 03:15:45;;;;;;;28.88;17.80;;;;;;;10.56;60.07;94673.38;5006617;28;20369;-79
2024/03/01 03:18:10;;;;;;;29.98;19.10;;;;;;;10.58;60.07;94672.94;5020565;28;20030;-80
2024/03/01 03:20:36;;;;;;;30.95;20.38;;;;;;;10.60;60.05;94668.53;5006338;28;20439;-78
2024/03/01 03:23:04;;;;;;;33.40;19.08;;;;;;;10.62;59.80;94670.84;5005908;28;20018;-78
2024/03/01 03:25:29;;;;;;;30.23;18.25;;;;;;;10.61;59.75;94656.34;5006151;28;20109;-78
2024/03/01 03:27:55;;;;;;;35.33;19.30;;;;;;;10.63;59.74;94662.16;5005694;28;20032;-78
2024/03/01 03:30:20;;;;;;;34.55;18.25;;;;;;;10.64;59.68;94660.16;5005677;28;20041;-79
2024/03/01 03:32:46;;;;;;;30.23;18.63;;;;;;;10.59;59.97;94645.00;5006443;28;20050;-78
2024/03/01 03:35:12;;;;;;;31.35;18.35;;;;;;;10.54;60.27;94642.03;5020221;28;20407;-78
2024/03/01 03:37:37;;;;;;;39.17;19.73;;;;;;;10.54;60.28;94636.53;5004861;28;20026;-78
2024/03/01 03:40:15;;;;;;;25.27;17.90;;;;;;;10.47;60.35;94639.53;5005635;28;20025;-78
2024/03/01 03:42:44;;;;;;;31.55;20.08;;;;;;;10.38;60.64;94653.97;5005879;28;20528;-80
2024/03/01 03:45:10;;;;;;;32.60;19.30;;;;;;;10.34;60.52;94647.81;5005858;28;20397;-79
2024/03/01 03:47:36;;;;;;;31.27;19.13;;;;;;;10.34;60.44;94659.56;5005354;28;20014;-79
2024/03/01 03:50:06;;;;;;;27.83;18.33;;;;;;;10.42;60.40;94659.34;5006756;28;20025;-78
2024/03/01 03:52:32;;;;;;;30.20;18.17;;;;;;;10.36;60.44;94654.38;5005456;28;20022;-78
2024/03/01 03:54:58;;;;;;;26.98;17.67;;;;;;;10.31;60.69;94646.69;5006544;28;20116;-79
2024/03/01 03:57:23;;;;;;;25.92;17.58;;;;;;;10.20;60.91;94632.50;5005357;28;20125;-80
2024/03/01 03:59:48;;;;;;;26.65;16.48;;;;;;;10.25;60.91;94666.94;5005568;28;20033;-79
2024/03/01 04:02:14;;;;;;;28.67;17.35;;;;;;;10.23;61.04;94664.63;5005555;28;20034;-79
2024/03/01 04:04:39;;;;;;;28.08;16.35;;;;;;;10.23;60.93;94664.63;5005010;28;20083;-79
2024/03/01 04:07:05;;;;;;;28.70;16.80;;;;;;;10.33;60.52;94660.03;5010189;28;20101;-79
2024/03/01 04:09:30;;;;;;;26.60;16.08;;;;;;;10.25;60.57;94648.47;5009021;28;20026;-78
2024/03/01 04:11:57;;;;;;;29.55;18.63;;;;;;;10.18;60.80;94645.94;5009814;28;20080;-78
2024/03/01 04:14:23;;;;;;;34.15;19.00;;;;;;;10.09;61.00;94648.56;5009082;28;20428;-79
2024/03/01 04:16:48;;;;;;;31.70;18.20;;;;;;;10.15;60.68;94655.06;5009781;28;20018;-78
2024/03/01 04:19:13;;;;;;;30.50;18.08;;;;;;;10.16;60.80;94645.59;5009177;28;20037;-78
2024/03/01 04:21:40;;;;;;;28.20;17.58;;;;;;;10.09;60.86;94630.13;5009006;28;20494;-78
2024/03/01 04:24:08;;;;;;;27.80;17.55;;;;;;;10.12;60.75;94628.47;5009435;28;20467;-79
2024/03/01 04:26:34;;;;;;;25.13;17.92;;;;;;;10.06;60.93;94636.50;5008783;28;20022;-79
2024/03/01 04:29:00;;;;;;;29.58;17.77;;;;;;;10.04;61.03;94633.44;5009700;28;20121;-78
2024/03/01 04:31:25;;;;;;;32.58;18.77;;;;;;;10.06;60.89;94641.22;5008397;28;20578;-80
2024/03/01 04:33:51;;;;;;;28.80;17.73;;;;;;;10.02;60.91;94640.53;5009382;28;20080;-78
2024/03/01 04:36:16;;;;;;;29.90;17.23;;;;;;;10.03;60.84;94644.81;5008533;28;20026;-79
2024/03/01 04:38:42;;;;;;;29.88;18.52;;;;;;;9.97;60.82;94628.13;5009143;28;20079;-79
2024/03/01 04:41:15;;;;;;;29.13;17.60;;;;;;;10.00;60.70;94634.75;5008797;28;20139;-80
2024/03/01 04:43:40;;;;;;;24.20;15.23;;;;;;;9.93;60.94;94643.97;5008571;28;20402;-80
2024/03/01 04:46:06;;;;;;;28.08;16.95;;;;;;;9.93;60.99;94643.22;5009560;28;20033;-78
2024/03/01 04:48:31;;;;;;;27.92;17.63;;;;;;;9.93;60.92;94633.00;5008365;28;20030;-78
2024/03/01 04:50:56;;;;;;;28.77;17.40;;;;;;;9.95;60.50;94643.53;5009092;28;20030;-78
2024/03/01 04:53:22;;;;;;;32.15;18.17;;;;;;;9.92;60.75;94645.19;5008125;28;20102;-79
2024/03/01 04:55:47;;;;;;;29.05;18.33;;;;;;;9.90;60.61;94641.31;5008508;28;20030;-80
2024/03/01 04:58:12;;;;;;;30.95;17.75;;;;;;;9.81;60.61;94655.72;5008270;28;20022;-80
2024/03/01 05:00:38;;;;;;;27.75;17.80;;;;;;;9.85;60.84;94640.66;5008339;28;20036;-78
2024/03/01 05:03:06;;;;;;;30.40;18.33;;;;;;;9.85;60.58;94661.84;5007126;28;20057;-78
2024/03/01 05:05:32;;;;;;;30.92;18.52;;;;;;;9.91;60.51;94656.59;5007817;28;20030;-79
2024/03/01 05:07:58;;;;;;;29.40;18.25;;;;;;;9.93;60.25;94662.44;5009067;28;20057;-79
2024/03/01 05:10:23;;;;;;;29.08;19.02;;;;;;;9.90;60.36;94644.06;5007526;28;20080;-82
2024/03/01 05:12:49;;;;;;;29.13;18.65;;;;;;;9.93;60.19;94657.69;5008476;28;20069;-82
2024/03/01 05:15:15;;;;;;;32.97;18.23;;;;;;;9.95;60.21;94652.53;5007923;28;20097;-82
2024/03/01 05:17:43;;;;;;;31.83;18.65;;;;;;;9.99;60.07;94657.91;5007311;28;20050;-82
2024/03/01 05:20:10;;;;;;;32.25;20.27;;;;;;;9.92;60.10;94647.13;5008458;28;20029;-81
2024/03/01 05:22:40;;;;;;;38.55;20.85;;;;;;;9.93;59.89;94654.19;5008059;28;20022;-81
2024/03/01 05:25:14;;;;;;;32.00;20.10;;;;;;;9.97;60.28;94668.56;5009339;28;20133;-81
2024/03/01 05:27:46;;;;;;;36.47;20.95;;;;;;;9.96;60.17;94670.53;5007531;28;20033;-81
2024/03/01 05:30:15;;;;;;;38.10;20.93;;;;;;;9.96;60.21;94664.28;5008785;28;20109;-80
2024/03/01 05:32:43;;;;;;;31.05;18.77;;;;;;;9.99;60.16;94675.16;5007599;28;20036;-80
2024/03/01 05:35:09;;;;;;;34.20;20.00;;;;;;;9.97;60.01;94677.56;5008312;28;20025;-81
2024/03/01 05:37:35;;;;;;;34.20;19.40;;;;;;;9.91;60.13;94684.03;5008359;28;20060;-81
2024/03/01 05:40:04;;;;;;;35.45;19.55;;;;;;;9.94;60.04;94683.19;5007556;28;20113;-81
2024/03/01 05:42:30;;;;;;;32.60;19.48;;;;;;;9.88;60.26;94682.97;5009250;28;20496;-83
2024/03/01 05:44:55;;;;;;;34.45;20.73;;;;;;;9.90;60.15;94694.25;5006682;28;20054;-83
2024/03/01 05:47:21;;;;;;;32.08;19.38;;;;;;;9.93;60.02;94707.13;5008486;28;20030;-84
2024/03/01 05:49:46;;;;;;;34.20;20.48;;;;;;;9.91;60.33;94701.28;5010482;28;20018;-83
2024/03/01 05:52:12;;;;;;;36.72;20.08;;;;;;;9.88;60.51;94704.91;5008947;28;20492;-84
2024/03/01 05:54:37;;;;;;;36.08;19.27;;;;;;;9.76;60.65;94686.47;5008209;28;20018;-85
2024/03/01 05:57:02;;;;;;;35.72;21.40;;;;;;;9.83;60.70;94689.75;5007935;28;20033;-84
2024/03/01 05:59:28;;;;;;;33.00;19.83;;;;;;;9.88;60.71;94677.47;5008442;28;20054;-85
2024/03/01 06:01:54;;;;;;;37.55;19.63;;;;;;;9.92;60.80;94685.56;5006558;28;20084;-84
2024/03/01 06:04:20;;;;;;;35.08;20.63;;;;;;;9.95;60.71;94673.72;5007950;28;20025;-85
2024/03/01 06:06:45;;;;;;;30.83;20.17;;;;;;;9.97;60.85;94676.78;5006979;28;20144;-86
2024/03/01 06:09:11;;;;;;;31.25;19.45;;;;;;;10.04;60.59;94682.09;5008279;28;20064;-83
2024/03/01 06:11:37;;;;;;;34.58;20.10;;;;;;;10.08;60.59;94682.72;5007908;28;20042;-84
2024/03/01 06:14:02;;;;;;;34.63;20.55;;;;;;;10.03;60.56;94659.31;5007938;28;20292;-85
2024/03/01 06:16:28;;;;;;;33.95;21.92;;;;;;;10.10;60.68;94656.38;5007644;28;20104;-84
2024/03/01 06:18:55;;;;;;;34.38;20.42;;;;;;;10.12;60.75;94655.94;5006874;28;20022;-82
2024/03/01 06:21:20;;;;;;;32.03;18.83;;;;;;;10.14;60.57;94669.22;5006608;28;20061;-81
2024/03/01 06:23:46;;;;;;;33.40;21.27;;;;;;;10.13;60.70;94656.69;5006173;28;20022;-82
2024/03/01 06:26:11;;;;;;;37.45;21.25;;;;;;;10.19;60.62;94649.44;5007709;28;20131;-81
2024/03/01 06:28:38;;;;;;;33.75;19.90;;;;;;;10.24;60.46;94646.16;5006472;28;20060;-81
2024/03/01 06:31:03;;;;;;;31.45;20.25;;;;;;;10.27;60.28;94653.53;5007159;28;20535;-81
2024/03/01 06:33:29;;;;;;;33.63;19.85;;;;;;;10.27;60.43;94657.06;5007050;28;20148;-85
2024/03/01 06:35:54;;;;;;;39.10;22.05;;;;;;;10.30;60.22;94672.63;5005923;28;20447;-84
2024/03/01 06:38:20;;;;;;;38.28;21.00;;;;;;;10.34;60.04;94670.56;5008051;28;20511;-83
2024/03/01 06:40:45;;;;;;;31.67;19.50;;;;;;;10.38;59.86;94678.69;5009168;28;20112;-84
2024/03/01 06:43:10;;;;;;;39.15;21.10;;;;;;;10.38;59.67;94689.69;5010638;28;20109;-90
2024/03/01 06:45:36;;;;;;;32.65;20.45;;;;;;;10.42;59.39;94686.81;5013133;28;20130;-83
2024/03/01 06:48:01;;;;;;;32.03;18.77;;;;;;;10.45;59.30;94672.97;5015724;28;20061;-83
2024/03/01 06:50:27;;;;;;;31.95;19.17;;;;;;;10.44;59.47;94687.16;5021769;28;20021;-82
2024/03/01 06:52:52;;;;;;;34.22;19.52;;;;;;;10.49;59.42;94679.09;5013246;28;20030;-84
2024/03/01 06:55:18;;;;;;;38.60;21.55;;;;;;;10.52;59.57;94680.97;5011627;28;20163;-84
2024/03/01 06:57:43;;;;;;;37.25;19.50;;;;;;;10.54;59.46;94669.53;5007723;28;20026;-83
2024/03/01 07:00:09;;;;;;;31.08;19.73;;;;;;;10.64;59.23;94679.41;5011070;28;20109;-82
2024/03/01 07:02:34;;;;;;;31.30;18.35;;;;;;;10.68;58.83;94685.56;5007974;28;20041;-81
2024/03/01 07:05:00;;;;;;;32.15;18.88;;;;;;;10.66;58.86;94671.47;5005264;28;20172;-80
2024/03/01 07:07:25;;;;;;;29.65;19.30;;;;;;;10.69;58.94;94667.84;5004552;28;20021;-81
2024/03/01 07:09:51;;;;;;;43.97;19.80;;;;;;;10.76;58.72;94666.84;5006388;28;20116;-81
2024/03/01 07:12:17;;;;;;;35.65;19.50;;;;;;;10.81;58.54;94658.78;5005843;28;20046;-80
2024/03/01 07:14:43;;;;;;;31.60;20.63;;;;;;;10.86;58.44;94646.47;5006012;28;20021;-80
2024/03/01 07:17:09;;;;;;;33.38;18.33;;;;;;;10.93;58.33;94650.94;5006316;28;20030;-81
2024/03/01 07:19:34;;;;;;;34.42;20.02;;;;;;;10.98;58.47;94650.38;5005704;28;20056;-81
2024/03/01 07:21:59;;;;;;;33.22;20.02;;;;;;;11.01;58.37;94653.03;5006668;28;20038;-82
2024/03/01 07:24:25;;;;;;;37.17;21.27;;;;;;;11.04;58.26;94657.63;5005496;28;20050;-89
2024/03/01 07:26:50;;;;;;;29.45;18.45;;;;;;;11.10;57.97;94644.81;5005141;28;20026;-81
2024/03/01 07:29:16;;;;;;;32.85;20.20;;;;;;;11.15;57.73;94637.97;5006495;28;20056;-80
2024/03/01 07:31:41;;;;;;;34.10;18.90;;;;;;;11.26;57.42;94643.88;5006366;28;20036;-80
2024/03/01 07:34:07;;;;;;;32.20;19.13;;;;;;;11.29;57.25;94656.72;5006396;28;20048;-83
2024/03/01 07:36:32;;;;;;;29.50;18.10;;;;;;;11.44;56.98;94668.00;5005420;28;20030;-80
2024/03/01 07:38:57;;;;;;;33.38;19.38;;;;;;;11.40;56.90;94662.59;5006566;28;20076;-79
2024/03/01 07:41:23;;;;;;;33.67;19.48;;;;;;;11.50;56.84;94668.94;5006774;28;20032;-81
2024/03/01 07:43:49;;;;;;;33.17;19.63;;;;;;;11.56;56.75;94674.66;5010591;28;20060;-85
2024/03/01 07:46:15;;;;;;;38.90;22.13;;;;;;;11.64;56.64;94667.66;5009470;28;20401;-80
2024/03/01 07:48:43;;;;;;;33.83;21.33;;;;;;;11.63;56.93;94672.38;5009221;28;20030;-79
2024/03/01 07:51:10;;;;;;;36.15;22.15;;;;;;;11.63;56.72;94666.88;5007792;28;20033;-80
2024/03/01 07:53:35;;;;;;;39.05;22.35;;;;;;;11.66;56.74;94673.50;5009413;28;20026;-77
2024/03/01 07:56:01;;;;;;;32.90;20.40;;;;;;;11.69;56.83;94683.59;5008737;28;20033;-75
2024/03/01 07:58:27;;;;;;;35.70;22.42;;;;;;;11.68;56.58;94677.31;5008170;28;20053;-79
2024/03/01 08:00:52;;;;;;;41.33;22.83;;;;;;;11.71;56.33;94689.44;5025646;28;20026;-79
2024/03/01 08:03:17;;;;;;;34.47;21.23;;;;;;;11.75;56.11;94686.53;5009466;28;20022;-88
2024/03/01 08:05:43;;;;;;;35.47;21.05;;;;;;;11.78;56.15;94686.41;5009919;28;20083;-79
2024/03/01 08:08:09;;;;;;;33.50;20.50;;;;;;;11.80;56.19;94683.19;5008605;28;20151;-78
2024/03/01 08:10:39;;;;;;;32.15;19.60;;;;;;;11.85;55.93;94666.88;5009505;28;20160;-79
2024/03/01 08:13:05;;;;;;;32.00;18.45;;;;;;;11.89;56.03;94689.56;5009454;28;20504;-79
2024/03/01 08:15:35;;;;;;;30.38;19.00;;;;;;;11.93;55.63;94686.69;5009810;28;20037;-79
2024/03/01 08:18:14;;;;;;;30.50;19.00;;;;;;;11.92;55.62;94691.41;5010252;28;20084;-78
2024/03/01 08:20:59;;;;;;;30.00;18.25;;;;;;;11.93;55.71;94698.47;5009010;28;20040;-79
2024/03/01 08:23:26;;;;;;;27.23;17.05;;;;;;;11.92;55.74;94691.41;5009725;28;20105;-80
2024/03/01 08:25:53;;;;;;;34.17;19.30;;;;;;;11.99;55.61;94689.63;5009182;28;20036;-79
2024/03/01 08:28:21;;;;;;;31.77;19.63;;;;;;;11.99;55.72;94687.63;5009811;28;20028;-79
2024/03/01 08:30:47;;;;;;;36.55;19.75;;;;;;;12.04;55.68;94680.72;5010004;28;20519;-80
2024/03/01 08:33:16;;;;;;;28.70;17.38;;;;;;;12.02;54.30;94669.41;5009127;28;20026;-79
2024/03/01 08:35:42;;;;;;;31.13;17.23;;;;;;;12.14;53.93;94672.06;5009926;28;20515;-80
2024/03/01 08:38:35;;;;;;;30.33;18.67;;;;;;;12.14;54.11;94671.28;5008844;28;20352;-81
2024/03/01 08:41:03;;;;;;;26.42;16.40;;;;;;;12.18;53.81;94661.69;5007807;28;20026;-79
2024/03/01 08:43:29;;;;;;;27.48;16.45;;;;;;;12.28;53.40;94670.75;5009376;28;20029;-78
2024/03/01 08:45:54;;;;;;;28.15;17.15;;;;;;;12.24;53.29;94683.91;5008918;28;20459;-80
2024/03/01 08:48:21;;;;;;;29.02;16.42;;;;;;;12.06;53.53;94678.31;5009529;28;20412;-80
2024/03/01 08:50:51;;;;;;;28.27;16.67;;;;;;;12.20;53.32;94691.53;5008797;28;20030;-79
2024/03/01 08:53:54;;;;;;;29.98;17.80;;;;;;;12.37;52.94;94687.31;5008376;28;20044;-80
2024/03/01 08:56:20;;;;;;;31.15;16.98;;;;;;;12.36;52.64;94682.25;5008851;28;20116;-80
2024/03/01 08:58:46;;;;;;;29.67;16.40;;;;;;;12.29;52.50;94694.31;5008872;28;20053;-80
2024/03/01 09:01:32;;;;;;;26.65;15.02;;;;;;;12.19;52.86;94698.25;5008916;28;20040;-79
2024/03/01 09:04:09;;;;;;;26.33;15.70;;;;;;;12.15;52.89;94703.13;4990026;28;20495;-80
2024/03/01 09:06:35;;;;;;;28.52;16.58;;;;;;;12.05;53.28;94699.59;5009091;28;20030;-80
2024/03/01 09:09:00;;;;;;;28.00;16.40;;;;;;;12.18;53.27;94703.00;5007938;28;20052;-81
2024/03/01 09:11:25;;;;;;;27.77;17.10;;;;;;;12.20;53.09;94700.56;5008753;28;20057;-79
2024/03/01 09:13:52;;;;;;;27.70;16.75;;;;;;;12.25;53.09;94699.22;5008543;28;20120;-79
2024/03/01 09:16:18;;;;;;;27.20;16.70;;;;;;;12.27;53.20;94693.22;5008385;28;20021;-80
2024/03/01 09:18:52;;;;;;;29.58;16.98;;;;;;;12.33;52.42;94686.69;5008778;28;20041;-79
2024/03/01 09:21:34;;;;;;;27.30;16.13;;;;;;;12.47;52.14;94685.34;5008280;28;20050;-79
2024/03/01 09:24:00;;;;;;;26.83;17.20;;;;;;;12.47;52.13;94675.09;5008047;28;20042;-80
2024/03/01 09:26:25;;;;;;;29.30;17.38;;;;;;;12.47;52.46;94677.84;5006867;28;20026;-79
2024/03/01 09:28:58;;;;;;;28.98;19.08;;;;;;;12.49;52.56;94678.16;5008144;28;20504;-79
2024/03/01 09:31:23;;;;;;;30.50;18.47;;;;;;;12.52;52.49;94684.00;5008723;28;20091;-78
2024/03/01 09:33:49;;;;;;;28.85;18.30;;;;;;;12.48;52.26;94676.63;5007837;28;20022;-78
2024/03/01 09:36:17;;;;;;;31.17;18.25;;;;;;;12.56;52.04;94682.63;5008228;28;20025;-78
2024/03/01 09:38:43;;;;;;;30.25;18.15;;;;;;;12.58;52.14;94691.19;5007587;28;20125;-80
2024/03/01 09:41:45;;;;;;;26.88;17.08;;;;;;;12.52;51.99;94684.75;5007819;28;20117;-79
2024/03/01 09:44:32;;;;;;;29.75;18.23;;;;;;;12.52;51.86;94673.72;5007554;28;20030;-80
2024/03/01 09:47:09;;;;;;;32.28;18.63;;;;;;;12.39;52.30;94664.81;5007329;28;20036;-82
2024/03/01 09:49:40;;;;;;;33.20;18.90;;;;;;;12.39;52.73;94656.53;5008456;28;20018;-79
2024/03/01 09:52:20;;;;;;;30.48;17.48;;;;;;;12.40;52.36;94675.38;5007165;28;20041;-79
2024/03/01 09:55:04;;;;;;;29.88;16.85;;;;;;;12.38;52.08;94680.56;5008140;28;20501;-80
2024/03/01 09:57:41;;;;;;;27.20;16.48;;;;;;;12.35;52.27;94678.72;5007044;28;20049;-80
2024/03/01 10:00:16;;;;;;;29.63;17.52;;;;;;;12.38;52.32;94672.28;5007132;28;20360;-80
2024/03/01 10:03:00;;;;;;;27.88;18.33;;;;;;;12.51;52.36;94676.94;5006023;28;20072;-81
2024/03/01 10:05:40;;;;;;;32.33;17.85;;;;;;;12.57;51.51;94680.63;5007612;28;20117;-79
2024/03/01 10:08:18;;;;;;;32.63;19.15;;;;;;;12.57;51.71;94675.88;5008670;28;20041;-80
2024/03/01 10:11:10;;;;;;;31.35;17.65;;;;;;;12.66;51.04;94666.84;5008285;28;20033;-77
2024/03/01 10:14:02;;;;;;;30.67;17.58;;;;;;;12.68;50.97;94667.94;5006331;28;20520;-78
2024/03/01 10:16:28;;;;;;;28.70;17.05;;;;;;;12.70;50.59;94670.25;5007537;28;20030;-80
2024/03/01 10:19:14;;;;;;;29.33;16.02;;;;;;;12.71;49.43;94664.25;5007494;28;20029;-79
2024/03/01 10:22:12;;;;;;;27.35;14.00;;;;;;;12.80;48.82;94660.75;5006773;28;20508;-79
2024/03/01 10:24:50;;;;;;;24.73;15.30;;;;;;;12.75;49.00;94659.38;4982652;28;20042;-79
2024/03/01 10:27:34;;;;;;;32.95;18.13;;;;;;;12.84;49.33;94658.59;5006773;28;20550;-80
2024/03/01 10:29:59;;;;;;;27.02;17.02;;;;;;;12.92;49.19;94653.56;5005074;28;20083;-80
2024/03/01 10:32:49;;;;;;;24.30;16.00;;;;;;;13.01;48.65;94648.03;5007542;28;20112;-81
2024/03/01 10:35:20;;;;;;;26.40;15.15;;;;;;;13.05;48.86;94637.63;5006595;28;20056;-79
2024/03/01 10:38:03;;;;;;;25.45;15.05;;;;;;;13.16;48.38;94632.41;5007001;28;20030;-78
2024/03/01 10:40:43;;;;;;;25.50;15.05;;;;;;;13.25;48.14;94631.69;5007129;28;20025;-80
2024/03/01 10:43:24;;;;;;;24.52;15.45;;;;;;;13.31;48.15;94626.31;5004688;28;20030;-80
2024/03/01 10:46:12;;;;;;;30.92;17.05;;;;;;;13.41;48.25;94631.31;5007007;28;20108;-81
2024/03/01 10:48:44;;;;;;;26.10;15.95;;;;;;;13.51;48.08;94621.81;5005345;28;20400;-81
2024/03/01 10:51:11;;;;;;;25.35;16.17;;;;;;;13.53;47.64;94626.84;5005175;28;20416;-80
2024/03/01 10:53:43;;;;;;;28.70;16.17;;;;;;;13.52;47.52;94626.09;5006059;28;20121;-80
2024/03/01 10:56:12;;;;;;;26.70;16.35;;;;;;;13.57;47.58;94621.94;5004587;28;20408;-81
2024/03/01 10:59:05;;;;;;;24.48;16.15;;;;;;;13.61;47.57;94617.03;5005374;28;20568;-80
2024/03/01 11:01:50;;;;;;;26.73;16.63;;;;;;;13.65;47.37;94606.59;5006420;28;20481;-80
2024/03/01 11:04:34;;;;;;;27.70;15.55;;;;;;;13.59;47.33;94610.44;5004423;28;20029;-80
2024/03/01 11:07:18;;;;;;;30.00;15.55;;;;;;;13.61;46.93;94603.22;5006727;28;20550;-80
2024/03/01 11:09:54;;;;;;;24.48;14.57;;;;;;;13.55;46.83;94592.03;5004915;28;20042;-79
2024/03/01 11:12:57;;;;;;;23.95;14.48;;;;;;;13.52;46.54;94592.19;5006167;28;20042;-79
2024/03/01 11:15:24;;;;;;;25.83;15.07;;;;;;;13.47;46.71;94577.00;5003207;28;20068;-82
2024/03/01 11:17:50;;;;;;;27.70;16.05;;;;;;;13.54;46.92;94573.94;5004604;28;20061;-80
2024/03/01 11:20:55;;;;;;;23.73;14.93;;;;;;;13.51;47.21;94577.63;5006360;28;20113;-80
2024/03/01 11:23:28;;;;;;;28.38;16.08;;;;;;;13.61;46.81;94577.59;5002295;28;20050;-81
2024/03/01 11:26:15;;;;;;;29.42;17.35;;;;;;;13.59;46.97;94580.06;5006963;28;20025;-81